sensor_id;sensor_type;location;lat;lon;timestamp;pressure;altitude;pressure_sealevel;temperature;humidity
11519;BME280;5816;48.228;14.116;2023-02-10T00:00:14;99809.22;;;-4.27;94.35
11519;BME280;5816;48.228;14.116;2023-02-10T00:05:16;99830.16;;;-4.11;94.90
11519;BME280;5816;48.228;14.116;2023-02-10T00:10:18;99835.38;;;-4.34;95.22
11519;BME280;5816;48.228;14.116;2023-02-10T00:15:19;99843.22;;;-4.18;95.16
11519;BME280;5816;48.228;14.116;2023-02-10T00:20:21;99856.34;;;-4.10;95.37
11519;BME280;5816;48.228;14.116;2023-02-10T00:25:23;99860.69;;;-4.14;95.24
11519;BME280;5816;48.228;14.116;2023-02-10T00:30:24;99863.31;;;-4.07;94.40
11519;BME280;5816;48.228;14.116;2023-02-10T00:35:26;99829.28;;;-4.29;93.90
11519;BME280;5816;48.228;14.116;2023-02-10T00:40:28;99803.13;;;-4.33;94.35
11519;BME280;5816;48.228;14.116;2023-02-10T00:45:29;99810.09;;;-4.34;93.63
11519;BME280;5816;48.228;14.116;2023-02-10T00:50:31;99839.72;;;-4.41;94.26
11519;BME280;5816;48.228;14.116;2023-02-10T00:55:33;99833.63;;;-4.42;94.80
11519;BME280;5816;48.228;14.116;2023-02-10T01:00:35;99859.78;;;-4.35;95.13
11519;BME280;5816;48.228;14.116;2023-02-10T01:05:36;99805.66;;;-4.73;95.40
11519;BME280;5816;48.228;14.116;2023-02-10T01:10:38;99876.34;;;-4.32;95.45
11519;BME280;5816;48.228;14.116;2023-02-10T01:15:44;99869.38;;;-4.33;96.18
11519;BME280;5816;48.228;14.116;2023-02-10T01:20:47;99869.38;;;-4.33;95.44
11519;BME280;5816;48.228;14.116;2023-02-10T01:25:49;99867.69;;;-4.17;95.02
11519;BME280;5816;48.228;14.116;2023-02-10T01:30:51;99871.13;;;-4.44;95.44
11519;BME280;5816;48.228;14.116;2023-02-10T01:35:52;99875.50;;;-4.37;95.40
11519;BME280;5816;48.228;14.116;2023-02-10T01:40:54;99844.06;;;-4.54;95.36
11519;BME280;5816;48.228;14.116;2023-02-10T01:45:56;99895.56;;;-4.27;95.06
11519;BME280;5816;48.228;14.116;2023-02-10T01:51:01;99902.44;;;-4.62;95.83
11519;BME280;5816;48.228;14.116;2023-02-10T01:56:06;99865.88;;;-4.50;95.65
11519;BME280;5816;48.228;14.116;2023-02-10T02:01:08;99865.88;;;-4.47;95.66
11519;BME280;5816;48.228;14.116;2023-02-10T02:06:10;99885.03;;;-4.48;96.00
11519;BME280;5816;48.228;14.116;2023-02-10T02:37:26;99910.38;;;-4.35;94.96
11519;BME280;5816;48.228;14.116;2023-02-10T02:42:31;99916.41;;;-4.45;95.12
11519;BME280;5816;48.228;14.116;2023-02-10T02:58:33;99898.06;;;-4.70;95.83
11519;BME280;5816;48.228;14.116;2023-02-10T03:03:36;99909.38;;;-4.71;96.37
11519;BME280;5816;48.228;14.116;2023-02-10T03:08:40;99903.22;;;-4.82;97.07
11519;BME280;5816;48.228;14.116;2023-02-10T03:13:42;99907.59;;;-4.84;97.26
11519;BME280;5816;48.228;14.116;2023-02-10T03:18:44;99917.22;;;-4.72;97.33
11519;BME280;5816;48.228;14.116;2023-02-10T03:23:46;99909.31;;;-4.83;97.30
11519;BME280;5816;48.228;14.116;2023-02-10T03:28:47;99905.75;;;-5.03;97.31
11519;BME280;5816;48.228;14.116;2023-02-10T03:33:49;99886.50;;;-5.17;97.34
11519;BME280;5816;48.228;14.116;2023-02-10T03:38:51;99902.22;;;-5.11;97.41
11519;BME280;5816;48.228;14.116;2023-02-10T03:43:53;99934.53;;;-4.97;97.49
11519;BME280;5816;48.228;14.116;2023-02-10T03:48:54;99946.72;;;-4.94;97.89
11519;BME280;5816;48.228;14.116;2023-02-10T03:53:56;99938.84;;;-5.05;97.54
11519;BME280;5816;48.228;14.116;2023-02-10T03:59:02;99948.56;;;-4.74;97.35
11519;BME280;5816;48.228;14.116;2023-02-10T04:04:04;99919.72;;;-4.95;97.11
11519;BME280;5816;48.228;14.116;2023-02-10T04:09:06;99951.16;;;-4.83;96.91
11519;BME280;5816;48.228;14.116;2023-02-10T04:14:07;99950.13;;;-5.11;96.76
11519;BME280;5816;48.228;14.116;2023-02-10T04:19:09;99947.53;;;-5.03;97.13
11519;BME280;5816;48.228;14.116;2023-02-10T04:24:11;99951.03;;;-5.07;97.60
11519;BME280;5816;48.228;14.116;2023-02-10T04:29:13;99958.06;;;-4.91;97.18
11519;BME280;5816;48.228;14.116;2023-02-10T04:34:15;99959.03;;;-4.80;96.89
11519;BME280;5816;48.228;14.116;2023-02-10T04:39:16;99947.63;;;-4.91;96.75
11519;BME280;5816;48.228;14.116;2023-02-10T04:44:18;99957.84;;;-5.28;97.55
11519;BME280;5816;48.228;14.116;2023-02-10T04:49:20;99942.31;;;-5.06;97.76
11519;BME280;5816;48.228;14.116;2023-02-10T04:54:23;99947.41;;;-5.28;97.98
11519;BME280;5816;48.228;14.116;2023-02-10T04:59:25;99933.34;;;-5.48;98.26
11519;BME280;5816;48.228;14.116;2023-02-10T05:04:27;99952.59;;;-5.31;98.18
11519;BME280;5816;48.228;14.116;2023-02-10T05:09:31;99938.75;;;-5.20;97.95
11519;BME280;5816;48.228;14.116;2023-02-10T05:14:33;99971.88;;;-5.13;98.19
11519;BME280;5816;48.228;14.116;2023-02-10T05:19:35;99982.19;;;-5.29;98.41
11519;BME280;5816;48.228;14.116;2023-02-10T05:24:36;99982.28;;;-5.16;98.42
11519;BME280;5816;48.228;14.116;2023-02-10T05:29:38;99988.34;;;-5.24;97.79
11519;BME280;5816;48.228;14.116;2023-02-10T05:34:40;99983.94;;;-5.34;97.81
11519;BME280;5816;48.228;14.116;2023-02-10T05:39:41;99983.75;;;-5.52;97.92
11519;BME280;5816;48.228;14.116;2023-02-10T05:44:43;100016.31;;;-5.10;98.00
11519;BME280;5816;48.228;14.116;2023-02-10T05:49:45;100026.69;;;-5.18;98.09
11519;BME280;5816;48.228;14.116;2023-02-10T05:54:46;100026.47;;;-5.47;98.37
11519;BME280;5816;48.228;14.116;2023-02-10T05:59:48;100010.72;;;-5.56;98.94
11519;BME280;5816;48.228;14.116;2023-02-10T06:04:50;100015.25;;;-5.34;98.41
11519;BME280;5816;48.228;14.116;2023-02-10T06:09:51;100030.84;;;-5.43;98.66
11519;BME280;5816;48.228;14.116;2023-02-10T06:14:53;100038.72;;;-5.41;98.72
11519;BME280;5816;48.228;14.116;2023-02-10T06:19:55;100009.75;;;-5.64;98.66
11519;BME280;5816;48.228;14.116;2023-02-10T06:24:57;100051.03;;;-5.27;98.15
11519;BME280;5816;48.228;14.116;2023-02-10T06:29:59;100070.13;;;-5.31;98.63
11519;BME280;5816;48.228;14.116;2023-02-10T06:35:00;100085.13;;;-5.08;97.78
11519;BME280;5816;48.228;14.116;2023-02-10T06:40:04;100099.97;;;-5.01;97.49
11519;BME280;5816;48.228;14.116;2023-02-10T06:45:06;100108.50;;;-5.24;98.07
11519;BME280;5816;48.228;14.116;2023-02-10T06:50:10;100109.00;;;-4.64;98.28
11519;BME280;5816;48.228;14.116;2023-02-10T06:55:14;100120.44;;;-4.45;98.00
11519;BME280;5816;48.228;14.116;2023-02-10T07:00:16;100123.75;;;-4.68;97.98
11519;BME280;5816;48.228;14.116;2023-02-10T07:05:17;100115.03;;;-4.70;97.88
11519;BME280;5816;48.228;14.116;2023-02-10T07:10:20;100094.09;;;-4.76;98.12
11519;BME280;5816;48.228;14.116;2023-02-10T07:15:23;100115.19;;;-4.48;97.93
11519;BME280;5816;48.228;14.116;2023-02-10T07:20:25;100131.94;;;-4.19;97.98
11519;BME280;5816;48.228;14.116;2023-02-10T07:25:26;100126.88;;;-3.77;97.88
11519;BME280;5816;48.228;14.116;2023-02-10T07:30:29;100126.97;;;-3.61;97.00
11519;BME280;5816;48.228;14.116;2023-02-10T07:35:30;100134.88;;;-3.45;96.90
11519;BME280;5816;48.228;14.116;2023-02-10T07:40:32;100127.03;;;-3.27;96.88
11519;BME280;5816;48.228;14.116;2023-02-10T07:45:34;100147.19;;;-2.89;96.44
11519;BME280;5816;48.228;14.116;2023-02-10T07:50:36;100109.59;;;-2.82;96.16
11519;BME280;5816;48.228;14.116;2023-02-10T07:55:38;100155.91;;;-2.47;95.65
11519;BME280;5816;48.228;14.116;2023-02-10T08:00:40;100153.28;;;-2.46;95.08
11519;BME280;5816;48.228;14.116;2023-02-10T08:05:42;100161.16;;;-2.26;94.43
11519;BME280;5816;48.228;14.116;2023-02-10T08:10:44;100138.38;;;-2.24;94.20
11519;BME280;5816;48.228;14.116;2023-02-10T08:15:46;100176.81;;;-1.96;93.93
11519;BME280;5816;48.228;14.116;2023-02-10T08:20:48;100181.19;;;-1.88;93.67
11519;BME280;5816;48.228;14.116;2023-02-10T08:25:50;100168.94;;;-1.89;93.02
11519;BME280;5816;48.228;14.116;2023-02-10T08:30:52;100177.63;;;-1.64;92.88
11519;BME280;5816;48.228;14.116;2023-02-10T08:35:54;100141.75;;;-1.73;92.26
11519;BME280;5816;48.228;14.116;2023-02-10T08:40:57;100194.19;;;-1.49;92.41
11519;BME280;5816;48.228;14.116;2023-02-10T08:46:00;100195.84;;;-1.29;92.33
11519;BME280;5816;48.228;14.116;2023-02-10T08:51:08;100194.09;;;-1.24;91.94
11519;BME280;5816;48.228;14.116;2023-02-10T08:56:14;100202.84;;;-1.28;91.28
11519;BME280;5816;48.228;14.116;2023-02-10T09:01:19;100173.84;;;-1.10;91.65
11519;BME280;5816;48.228;14.116;2023-02-10T09:06:31;100190.41;;;-0.96;90.93
11519;BME280;5816;48.228;14.116;2023-02-10T09:11:34;100208.78;;;-0.90;90.79
11519;BME280;5816;48.228;14.116;2023-02-10T09:16:36;100178.16;;;-0.97;90.79
11519;BME280;5816;48.228;14.116;2023-02-10T09:21:38;100211.28;;;-0.73;90.38
11519;BME280;5816;48.228;14.116;2023-02-10T09:26:48;100195.50;;;-0.71;90.51
11519;BME280;5816;48.228;14.116;2023-02-10T09:31:49;100191.22;;;-0.83;90.09
11519;BME280;5816;48.228;14.116;2023-02-10T09:36:51;100220.72;;;-0.40;89.97
11519;BME280;5816;48.228;14.116;2023-02-10T09:42:18;100219.69;;;-0.23;89.73
11519;BME280;5816;48.228;14.116;2023-02-10T10:19:36;100223.59;;;0.26;86.28
11519;BME280;5816;48.228;14.116;2023-02-10T10:24:56;100238.13;;;0.64;85.58
11519;BME280;5816;48.228;14.116;2023-02-10T10:35:47;100219.59;;;0.67;85.17
11519;BME280;5816;48.228;14.116;2023-02-10T10:40:56;100202.66;;;0.87;84.21
11519;BME280;5816;48.228;14.116;2023-02-10T10:46:11;100194.03;;;0.74;83.27
11519;BME280;5816;48.228;14.116;2023-02-10T10:51:14;100182.47;;;0.84;82.80
11519;BME280;5816;48.228;14.116;2023-02-10T11:01:47;100168.78;;;1.16;80.89
11519;BME280;5816;48.228;14.116;2023-02-10T11:06:55;100182.84;;;1.18;80.26
11519;BME280;5816;48.228;14.116;2023-02-10T11:12:28;100173.81;;;1.34;80.20
11519;BME280;5816;48.228;14.116;2023-02-10T11:17:36;100158.13;;;1.25;80.00
11519;BME280;5816;48.228;14.116;2023-02-10T11:22:42;100155.16;;;1.44;79.43
11519;BME280;5816;48.228;14.116;2023-02-10T11:27:51;100145.22;;;1.61;79.17
11519;BME280;5816;48.228;14.116;2023-02-10T11:32:54;100130.63;;;1.86;78.05
11519;BME280;5816;48.228;14.116;2023-02-10T11:38:02;100129.88;;;1.81;78.04
11519;BME280;5816;48.228;14.116;2023-02-10T11:43:05;100120.81;;;1.93;77.75
11519;BME280;5816;48.228;14.116;2023-02-10T11:48:17;100113.94;;;1.84;77.74
11519;BME280;5816;48.228;14.116;2023-02-10T11:53:28;100089.34;;;1.82;77.48
11519;BME280;5816;48.228;14.116;2023-02-10T11:58:55;100093.41;;;1.99;77.03
11519;BME280;5816;48.228;14.116;2023-02-10T12:04:02;100095.19;;;1.98;76.64
11519;BME280;5816;48.228;14.116;2023-02-10T12:24:53;100069.88;;;2.28;75.84
11519;BME280;5816;48.228;14.116;2023-02-10T12:45:42;100053.06;;;2.71;74.95
11519;BME280;5816;48.228;14.116;2023-02-10T12:51:04;100031.56;;;2.86;74.62
11519;BME280;5816;48.228;14.116;2023-02-10T12:56:14;100047.19;;;2.95;74.81
11519;BME280;5816;48.228;14.116;2023-02-10T13:01:26;100039.63;;;3.16;74.17
11519;BME280;5816;48.228;14.116;2023-02-10T13:11:58;100022.72;;;3.21;74.22
11519;BME280;5816;48.228;14.116;2023-02-10T13:17:03;100025.56;;;3.14;74.04
11519;BME280;5816;48.228;14.116;2023-02-10T13:22:17;100021.09;;;3.16;73.92
11519;BME280;5816;48.228;14.116;2023-02-10T13:27:56;100033.19;;;3.26;73.81
11519;BME280;5816;48.228;14.116;2023-02-10T13:34:11;100039.41;;;3.25;73.34
11519;BME280;5816;48.228;14.116;2023-02-10T13:38:47;100024.94;;;3.38;73.46
11519;BME280;5816;48.228;14.116;2023-02-10T13:43:55;100038.38;;;3.30;73.74
11519;BME280;5816;48.228;14.116;2023-02-10T13:48:59;100034.75;;;3.35;73.36
11519;BME280;5816;48.228;14.116;2023-02-10T13:54:03;100032.22;;;3.30;72.87
11519;BME280;5816;48.228;14.116;2023-02-10T13:59:24;100030.06;;;3.44;72.58
11519;BME280;5816;48.228;14.116;2023-02-10T14:04:40;100037.19;;;3.42;71.91
11519;BME280;5816;48.228;14.116;2023-02-10T14:09:46;100034.84;;;3.30;72.56
11519;BME280;5816;48.228;14.116;2023-02-10T14:14:48;100036.06;;;3.17;72.59
11519;BME280;5816;48.228;14.116;2023-02-10T14:19:51;100043.50;;;3.02;73.24
11519;BME280;5816;48.228;14.116;2023-02-10T14:24:54;100032.66;;;3.12;73.37
11519;BME280;5816;48.228;14.116;2023-02-10T14:30:15;100026.50;;;3.11;73.84
11519;BME280;5816;48.228;14.116;2023-02-10T14:35:22;100016.25;;;2.97;74.19
11519;BME280;5816;48.228;14.116;2023-02-10T14:40:31;100022.41;;;2.99;74.66
11519;BME280;5816;48.228;14.116;2023-02-10T14:45:35;100025.19;;;2.93;73.99
11519;BME280;5816;48.228;14.116;2023-02-10T14:50:44;100026.31;;;2.83;74.51
11519;BME280;5816;48.228;14.116;2023-02-10T14:55:53;100031.75;;;2.77;75.04
11519;BME280;5816;48.228;14.116;2023-02-10T15:01:10;100010.84;;;2.66;74.98
11519;BME280;5816;48.228;14.116;2023-02-10T15:06:18;100029.09;;;2.79;74.77
11519;BME280;5816;48.228;14.116;2023-02-10T15:11:27;100017.97;;;2.63;75.83
11519;BME280;5816;48.228;14.116;2023-02-10T15:16:51;100019.81;;;2.61;75.93
11519;BME280;5816;48.228;14.116;2023-02-10T15:21:54;100028.66;;;2.60;75.96
11519;BME280;5816;48.228;14.116;2023-02-10T15:27:16;100021.88;;;2.46;76.15
11519;BME280;5816;48.228;14.116;2023-02-10T15:32:21;100030.75;;;2.45;76.39
11519;BME280;5816;48.228;14.116;2023-02-10T15:37:25;100003.09;;;2.20;76.64
11519;BME280;5816;48.228;14.116;2023-02-10T15:42:33;100015.53;;;2.15;77.31
11519;BME280;5816;48.228;14.116;2023-02-10T15:47:46;100033.91;;;2.21;76.85
11519;BME280;5816;48.228;14.116;2023-02-10T15:52:49;100038.56;;;2.08;77.11
11519;BME280;5816;48.228;14.116;2023-02-10T15:57:51;99998.72;;;1.77;76.63
11519;BME280;5816;48.228;14.116;2023-02-10T16:02:53;100035.28;;;1.99;77.00
11519;BME280;5816;48.228;14.116;2023-02-10T16:08:04;100039.94;;;1.86;77.03
11519;BME280;5816;48.228;14.116;2023-02-10T16:13:09;100045.97;;;1.48;78.28
11519;BME280;5816;48.228;14.116;2023-02-10T16:18:13;100039.31;;;1.25;80.25
11519;BME280;5816;48.228;14.116;2023-02-10T16:23:17;100045.53;;;1.21;80.81
11519;BME280;5816;48.228;14.116;2023-02-10T16:28:20;100042.19;;;1.13;80.55
11519;BME280;5816;48.228;14.116;2023-02-10T16:33:22;100053.03;;;0.95;80.94
11519;BME280;5816;48.228;14.116;2023-02-10T16:38:24;100065.41;;;0.90;82.06
11519;BME280;5816;48.228;14.116;2023-02-10T16:43:26;100075.06;;;0.31;83.17
11519;BME280;5816;48.228;14.116;2023-02-10T16:48:28;100065.94;;;0.56;83.69
11519;BME280;5816;48.228;14.116;2023-02-10T16:53:30;100066.13;;;0.41;83.14
11519;BME280;5816;48.228;14.116;2023-02-10T16:58:32;100071.47;;;0.35;83.85
11519;BME280;5816;48.228;14.116;2023-02-10T17:03:33;100077.03;;;0.13;84.00
11519;BME280;5816;48.228;14.116;2023-02-10T17:08:35;100087.06;;;-0.18;84.00
11519;BME280;5816;48.228;14.116;2023-02-10T17:13:37;100073.63;;;0.05;84.32
11519;BME280;5816;48.228;14.116;2023-02-10T17:18:39;100078.16;;;-0.05;84.28
11519;BME280;5816;48.228;14.116;2023-02-10T17:23:41;100068.78;;;-0.32;84.94
11519;BME280;5816;48.228;14.116;2023-02-10T17:28:43;100090.53;;;-0.14;85.43
11519;BME280;5816;48.228;14.116;2023-02-10T17:33:45;100088.78;;;-0.15;85.31
11519;BME280;5816;48.228;14.116;2023-02-10T17:38:52;100095.84;;;-0.17;85.73
11519;BME280;5816;48.228;14.116;2023-02-10T17:43:58;100062.81;;;-0.46;85.99
11519;BME280;5816;48.228;14.116;2023-02-10T17:49:00;100087.16;;;-0.25;86.08
11519;BME280;5816;48.228;14.116;2023-02-10T17:54:02;100080.25;;;-0.37;86.37
11519;BME280;5816;48.228;14.116;2023-02-10T17:59:06;100079.50;;;-0.47;87.02
11519;BME280;5816;48.228;14.116;2023-02-10T18:04:08;100091.81;;;-0.52;87.83
11519;BME280;5816;48.228;14.116;2023-02-10T18:09:10;100100.66;;;-0.59;88.25
11519;BME280;5816;48.228;14.116;2023-02-10T18:14:12;100108.03;;;-1.01;89.37
11519;BME280;5816;48.228;14.116;2023-02-10T18:19:14;100096.47;;;-0.81;89.26
11519;BME280;5816;48.228;14.116;2023-02-10T18:24:16;100103.38;;;-0.71;89.33
11519;BME280;5816;48.228;14.116;2023-02-10T18:29:17;100103.63;;;-0.97;89.98
11519;BME280;5816;48.228;14.116;2023-02-10T18:34:19;100099.16;;;-0.88;89.91
11519;BME280;5816;48.228;14.116;2023-02-10T18:39:21;100089.72;;;-1.19;90.82
11519;BME280;5816;48.228;14.116;2023-02-10T18:44:23;100096.00;;;-1.35;92.34
11519;BME280;5816;48.228;14.116;2023-02-10T18:49:25;100076.63;;;-1.25;92.39
11519;BME280;5816;48.228;14.116;2023-02-10T18:54:27;100081.19;;;-1.46;93.52
11519;BME280;5816;48.228;14.116;2023-02-10T19:04:48;100052.38;;;-1.66;94.17
11519;BME280;5816;48.228;14.116;2023-02-10T19:09:50;100070.59;;;-1.36;93.58
11519;BME280;5816;48.228;14.116;2023-02-10T19:14:53;100005.13;;;-1.73;93.97
11519;BME280;5816;48.228;14.116;2023-02-10T19:19:55;100081.97;;;-1.31;93.31
11519;BME280;5816;48.228;14.116;2023-02-10T19:24:56;100072.41;;;-1.45;93.55
11519;BME280;5816;48.228;14.116;2023-02-10T19:29:58;100094.22;;;-1.30;93.14
11519;BME280;5816;48.228;14.116;2023-02-10T19:35:00;100101.28;;;-1.42;92.49
11519;BME280;5816;48.228;14.116;2023-02-10T19:40:03;100073.34;;;-1.56;93.09
11519;BME280;5816;48.228;14.116;2023-02-10T19:45:06;100071.66;;;-1.74;93.05
11519;BME280;5816;48.228;14.116;2023-02-10T19:50:08;100106.66;;;-1.58;93.23
11519;BME280;5816;48.228;14.116;2023-02-10T19:55:10;100046.38;;;-1.95;93.70
11519;BME280;5816;48.228;14.116;2023-02-10T20:00:14;100099.72;;;-1.73;94.38
11519;BME280;5816;48.228;14.116;2023-02-10T20:05:16;100099.78;;;-1.93;95.19
11519;BME280;5816;48.228;14.116;2023-02-10T20:10:17;100077.97;;;-2.16;96.49
11519;BME280;5816;48.228;14.116;2023-02-10T20:15:19;100071.88;;;-2.23;97.41
11519;BME280;5816;48.228;14.116;2023-02-10T20:20:21;100094.66;;;-2.22;98.16
11519;BME280;5816;48.228;14.116;2023-02-10T20:25:24;100094.59;;;-2.07;98.21
11519;BME280;5816;48.228;14.116;2023-02-10T20:30:26;100096.41;;;-2.21;98.06
11519;BME280;5816;48.228;14.116;2023-02-10T20:35:28;100050.09;;;-2.51;99.16
11519;BME280;5816;48.228;14.116;2023-02-10T20:40:31;100074.53;;;-2.31;99.19
11519;BME280;5816;48.228;14.116;2023-02-10T20:45:33;99933.09;;;-3.13;98.90
11519;BME280;5816;48.228;14.116;2023-02-10T20:50:35;100010.81;;;-2.71;99.22
11519;BME280;5816;48.228;14.116;2023-02-10T20:55:37;100089.41;;;-2.28;99.16
11519;BME280;5816;48.228;14.116;2023-02-10T21:00:39;100077.19;;;-2.41;98.81
11519;BME280;5816;48.228;14.116;2023-02-10T21:05:41;100099.84;;;-2.07;97.98
11519;BME280;5816;48.228;14.116;2023-02-10T21:10:43;100094.59;;;-2.10;96.98
11519;BME280;5816;48.228;14.116;2023-02-10T21:15:50;100054.41;;;-2.27;96.77
11519;BME280;5816;48.228;14.116;2023-02-10T21:32:20;100091.19;;;-2.42;97.41
11519;BME280;5816;48.228;14.116;2023-02-10T21:37:22;100074.59;;;-2.58;98.75
11519;BME280;5816;48.228;14.116;2023-02-10T21:42:24;100092.91;;;-2.32;98.35
11519;BME280;5816;48.228;14.116;2023-02-10T21:47:25;100089.41;;;-2.31;97.94
11519;BME280;5816;48.228;14.116;2023-02-10T21:52:27;100078.09;;;-2.49;97.72
11519;BME280;5816;48.228;14.116;2023-02-10T21:57:29;100079.81;;;-2.46;98.42
11519;BME280;5816;48.228;14.116;2023-02-10T22:02:30;100085.06;;;-2.44;98.43
11519;BME280;5816;48.228;14.116;2023-02-10T22:07:35;100076.31;;;-2.51;98.13
